createdAt,value
2022-12-28T00:02:16.708Z,144338.56
2022-12-28T00:04:43.866Z,144353.06
2022-12-28T00:07:10.751Z,144333.72
2022-12-28T00:09:37.566Z,144328.88
2022-12-28T00:12:04.675Z,144336.13
2022-12-28T00:14:31.518Z,144310.75
2022-12-28T00:16:58.421Z,144328.88
2022-12-28T00:19:25.466Z,144338.56
2022-12-28T00:21:53.661Z,144360.34
2022-12-28T00:24:21.682Z,144351.88
2022-12-28T00:26:48.819Z,144338.56
2022-12-28T00:29:16.814Z,144362.75
2022-12-28T00:31:45.637Z,144367.59
2022-12-28T00:34:12.680Z,144362.75
2022-12-28T00:37:09.998Z,144376.06
2022-12-28T00:39:29.345Z,144382.09
2022-12-28T00:41:56.152Z,144386.94
2022-12-28T00:44:23.071Z,144389.38
2022-12-28T00:46:50.109Z,144379.69
2022-12-28T00:49:18.238Z,144395.41
2022-12-28T00:51:45.057Z,144377.25
2022-12-28T00:54:11.951Z,144396.66
2022-12-28T00:56:40.055Z,144379.69
2022-12-28T00:59:08.041Z,144366.38
2022-12-28T01:01:35.259Z,144379.69
2022-12-28T01:04:02.148Z,144388.19
2022-12-28T01:06:29.052Z,144412.38
2022-12-28T01:08:57.632Z,144451.13
2022-12-28T01:11:28.737Z,144470.50
2022-12-28T01:13:58.076Z,144466.84
2022-12-28T01:16:26.820Z,144449.88
2022-12-28T01:18:55.887Z,144500.72
2022-12-28T01:21:23.994Z,144508.00
2022-12-28T01:23:53.328Z,144510.44
2022-12-28T01:26:20.218Z,144520.13
2022-12-28T01:28:47.050Z,144538.28
2022-12-28T01:31:15.066Z,144524.97
2022-12-28T01:33:42.323Z,144531.00
2022-12-28T01:36:11.901Z,144520.13
2022-12-28T01:38:38.744Z,144526.16
2022-12-28T01:41:09.877Z,144546.78
2022-12-28T01:43:42.055Z,144564.94
2022-12-28T01:46:32.014Z,144534.66
2022-12-28T01:48:58.794Z,144529.81
2022-12-28T01:51:27.360Z,144566.13
2022-12-28T01:53:55.928Z,144554.00
2022-12-28T01:56:23.143Z,144567.34
2022-12-28T01:58:51.664Z,144566.13
2022-12-28T02:01:18.928Z,144568.53
2022-12-28T02:03:46.053Z,144555.22
2022-12-28T02:06:13.135Z,144554.00
2022-12-28T02:08:43.085Z,144596.38
2022-12-28T02:11:12.501Z,144578.22
2022-12-28T02:13:39.838Z,144577.03
2022-12-28T02:16:06.836Z,144575.81
2022-12-28T02:18:34.087Z,144600.03
2022-12-28T02:21:09.972Z,144609.72
2022-12-28T02:23:42.754Z,144594.00
2022-12-28T02:26:09.562Z,144580.66
2022-12-28T02:28:54.018Z,144573.38
2022-12-28T02:31:35.663Z,144601.28
2022-12-28T02:34:09.567Z,144587.94
2022-12-28T02:36:39.294Z,144540.69
2022-12-28T02:39:09.198Z,144561.31
2022-12-28T02:41:38.266Z,144587.94
2022-12-28T02:44:05.191Z,144586.72
2022-12-28T02:46:52.011Z,144579.47
2022-12-28T02:49:44.802Z,144585.50
2022-12-28T02:52:11.583Z,144600.03
2022-12-28T02:55:00.151Z,144619.44
2022-12-28T02:57:27.234Z,144607.31
2022-12-28T03:00:06.871Z,144609.72
2022-12-28T03:02:54.206Z,144617.00
2022-12-28T03:05:49.030Z,144595.19
2022-12-28T03:08:20.921Z,144608.50
2022-12-28T03:11:02.446Z,144607.31
2022-12-28T03:13:44.812Z,144615.81
2022-12-28T03:16:22.402Z,144633.97
2022-12-28T03:19:20.686Z,144613.34
2022-12-28T03:22:07.978Z,144600.03
2022-12-28T03:24:55.688Z,144604.88
2022-12-28T03:27:46.161Z,144614.56
2022-12-28T03:30:36.950Z,144597.63
2022-12-28T03:33:05.877Z,144633.97
2022-12-28T03:35:45.585Z,144619.44
2022-12-28T03:38:27.022Z,144637.59
2022-12-28T03:41:07.385Z,144619.44
2022-12-28T03:43:52.472Z,144654.53
2022-12-28T03:46:22.508Z,144640.00
2022-12-28T03:48:50.433Z,144636.38
2022-12-28T03:51:20.779Z,144667.88
2022-12-28T03:53:48.088Z,144667.88
2022-12-28T03:56:19.515Z,144666.66
2022-12-28T03:58:47.265Z,144666.66
2022-12-28T04:01:16.105Z,144658.19
2022-12-28T04:03:43.809Z,144669.06
2022-12-28T04:06:16.458Z,144680.03
2022-12-28T04:08:44.542Z,144681.25
2022-12-28T04:11:12.093Z,144649.69
2022-12-28T04:13:39.218Z,144672.75
2022-12-28T04:16:09.773Z,144684.88
2022-12-28T04:18:38.027Z,144677.59
2022-12-28T04:21:05.040Z,144667.88
2022-12-28T04:23:32.131Z,144664.22
2022-12-28T04:26:14.220Z,144664.22
2022-12-28T04:28:42.991Z,144675.19
2022-12-28T04:31:36.033Z,144689.72
2022-12-28T04:34:07.143Z,144687.28
2022-12-28T04:36:39.507Z,144682.44
2022-12-28T04:39:10.808Z,144698.22
2022-12-28T04:41:37.700Z,144690.94
2022-12-28T04:44:04.533Z,144701.84
2022-12-28T04:46:31.403Z,144695.75
2022-12-28T04:48:58.297Z,144680.03
2022-12-28T04:51:26.950Z,144687.28
2022-12-28T04:53:54.943Z,144700.59
2022-12-28T04:56:23.091Z,144687.28
2022-12-28T04:58:53.347Z,144658.19
2022-12-28T05:01:20.472Z,144646.06
2022-12-28T05:03:54.449Z,144682.44
2022-12-28T05:06:24.060Z,144692.16
2022-12-28T05:08:50.999Z,144715.19
2022-12-28T05:11:19.224Z,144706.69
2022-12-28T05:13:46.042Z,144705.44
2022-12-28T05:16:14.508Z,144718.78
2022-12-28T05:18:41.394Z,144704.25
2022-12-28T05:21:09.493Z,144703.06
2022-12-28T05:23:37.321Z,144697.00
2022-12-28T05:26:05.131Z,144709.09
2022-12-28T05:28:32.348Z,144712.75
2022-12-28T05:31:03.348Z,144728.50
2022-12-28T05:33:30.800Z,144735.75
2022-12-28T05:36:02.281Z,144701.84
2022-12-28T05:38:29.088Z,144732.13
2022-12-28T05:40:56.005Z,144750.28
2022-12-28T05:43:22.807Z,144757.56
2022-12-28T05:45:49.619Z,144762.41
2022-12-28T05:48:16.450Z,144757.56
2022-12-28T05:50:43.287Z,144759.97
2022-12-28T05:53:10.097Z,144759.97
2022-12-28T05:55:36.921Z,144776.94
2022-12-28T05:58:03.790Z,144776.94
2022-12-28T06:00:30.600Z,144784.25
2022-12-28T06:02:57.509Z,144779.41
2022-12-28T06:05:24.427Z,144803.63
2022-12-28T06:07:54.544Z,144799.97
2022-12-28T06:10:21.372Z,144793.94
2022-12-28T06:12:48.238Z,144801.22
2022-12-28T06:15:15.135Z,144808.47
2022-12-28T06:17:41.958Z,144813.31
2022-12-28T06:20:09.181Z,144818.16
2022-12-28T06:22:36.128Z,144827.84
2022-12-28T06:25:02.983Z,144839.97
2022-12-28T06:27:29.807Z,144839.97
2022-12-28T06:29:56.611Z,144863.00
2022-12-28T06:32:23.433Z,144878.78
2022-12-28T06:34:50.359Z,144859.34
2022-12-28T06:37:17.197Z,144864.22
2022-12-28T06:39:44.014Z,144870.31
2022-12-28T06:42:10.897Z,144859.34
2022-12-28T06:44:44.169Z,144859.34
2022-12-28T06:47:11.835Z,144894.53
2022-12-28T06:49:38.679Z,144888.47
2022-12-28T06:52:05.526Z,144903.00
2022-12-28T06:54:32.358Z,144883.63
2022-12-28T06:56:59.275Z,144892.13
2022-12-28T06:59:26.069Z,144886.03
2022-12-28T07:01:53.136Z,144905.41
2022-12-28T07:04:21.406Z,144915.16
2022-12-28T07:06:48.562Z,144920.00
2022-12-28T07:09:16.237Z,144915.16
2022-12-28T07:11:44.205Z,144936.94
2022-12-28T07:14:11.101Z,144924.84
2022-12-28T07:19:04.027Z,144945.44
2022-12-28T07:21:35.294Z,144953.94
2022-12-28T07:24:02.299Z,144963.63
2022-12-28T07:26:30.324Z,144949.09
2022-12-28T07:28:57.953Z,144975.75
2022-12-28T07:31:34.631Z,144968.47
2022-12-28T07:34:03.957Z,144992.75
2022-12-28T07:36:31.724Z,144970.91
2022-12-28T07:38:58.867Z,144992.75
2022-12-28T07:41:27.938Z,144995.16
2022-12-28T07:43:55.223Z,144998.81
2022-12-28T07:46:23.519Z,144997.59
2022-12-28T07:48:51.424Z,145007.28
2022-12-28T07:51:20.151Z,145013.34
2022-12-28T07:53:48.376Z,145015.78
2022-12-28T07:56:15.579Z,145002.44
2022-12-28T08:01:09.790Z,145031.53
2022-12-28T08:03:37.209Z,145031.53
2022-12-28T08:06:11.739Z,145019.44
2022-12-28T08:08:39.990Z,145004.84
2022-12-28T08:11:08.080Z,145041.22
2022-12-28T08:13:36.413Z,145017.00
2022-12-28T08:16:03.873Z,145038.81
2022-12-28T08:18:31.268Z,145060.66
2022-12-28T08:21:02.388Z,145036.38
2022-12-28T08:23:30.245Z,145063.06
2022-12-28T08:25:57.378Z,145057.03
2022-12-28T08:28:24.409Z,145090.97
2022-12-28T08:30:51.265Z,145087.31
2022-12-28T08:33:18.139Z,145089.75
2022-12-28T08:35:44.946Z,145093.41
2022-12-28T08:38:11.773Z,145100.66
2022-12-28T08:40:38.596Z,145084.91
2022-12-28T08:43:05.507Z,145099.47
2022-12-28T08:45:32.391Z,145110.41
2022-12-28T08:47:59.325Z,145123.69
2022-12-28T08:50:31.356Z,145128.59
2022-12-28T08:52:58.652Z,145112.81
2022-12-28T08:55:25.471Z,145118.84
2022-12-28T08:57:52.287Z,145144.34
2022-12-28T09:00:19.211Z,145155.25
2022-12-28T09:02:46.074Z,145137.06
2022-12-28T09:05:12.931Z,145132.19
2022-12-28T09:07:39.783Z,145163.75
2022-12-28T09:10:07.065Z,145172.25
2022-12-28T09:12:33.913Z,145157.69
2022-12-28T09:15:00.758Z,145138.31
2022-12-28T09:17:27.587Z,145123.69
2022-12-28T09:19:54.396Z,145121.31
2022-12-28T09:22:21.217Z,145143.16
2022-12-28T09:24:48.013Z,145122.50
2022-12-28T09:27:14.856Z,145150.41
2022-12-28T09:29:41.808Z,145157.69
2022-12-28T09:32:08.616Z,145172.25
2022-12-28T09:34:37.594Z,145201.41
2022-12-28T09:37:05.645Z,145186.78
2022-12-28T09:39:32.524Z,145185.59
2022-12-28T09:41:59.398Z,145191.66
2022-12-28T09:44:41.537Z,145207.44
2022-12-28T09:47:09.434Z,145178.28
2022-12-28T09:49:41.298Z,145202.59
2022-12-28T09:52:24.863Z,145215.94
2022-12-28T09:54:51.709Z,145231.69
2022-12-28T09:57:19.310Z,145214.69
2022-12-28T09:59:47.664Z,145234.16
2022-12-28T10:02:33.668Z,145234.16
2022-12-28T10:05:01.250Z,145211.09
2022-12-28T10:07:28.090Z,145205.00
2022-12-28T10:09:54.952Z,145189.25
2022-12-28T10:12:24.257Z,145208.66
2022-12-28T10:14:51.846Z,145198.94
2022-12-28T10:17:20.830Z,145201.41
2022-12-28T10:19:47.822Z,145179.53
2022-12-28T10:22:18.795Z,145188.03
2022-12-28T10:24:45.929Z,145206.25
2022-12-28T10:27:23.727Z,145211.09
2022-12-28T10:29:51.785Z,145228.06
2022-12-28T10:32:19.276Z,145195.28
2022-12-28T10:34:59.784Z,145196.50
2022-12-28T10:37:29.372Z,145192.91
2022-12-28T10:40:09.018Z,145186.78
2022-12-28T10:42:35.850Z,145213.50
2022-12-28T10:45:04.309Z,145240.19
2022-12-28T10:47:35.741Z,145293.66
2022-12-28T10:50:35.324Z,145106.75
2022-12-28T10:52:58.160Z,145257.25
2022-12-28T10:55:33.974Z,145259.66
2022-12-28T10:58:30.258Z,145293.66
2022-12-28T11:01:00.163Z,145269.34
2022-12-28T11:03:29.243Z,145237.81
2022-12-28T11:06:08.260Z,145269.34
2022-12-28T11:08:36.418Z,145228.06
2022-12-28T11:11:03.254Z,145269.34
2022-12-28T11:13:30.362Z,145325.22
2022-12-28T11:15:57.362Z,145365.28
2022-12-28T11:18:24.377Z,145382.25
2022-12-28T11:20:52.303Z,145405.31
2022-12-28T11:23:31.355Z,145422.31
2022-12-28T11:25:58.765Z,145419.94
2022-12-28T11:28:25.675Z,145441.75
2022-12-28T11:30:52.851Z,145472.13
2022-12-28T11:33:25.971Z,145480.63
2022-12-28T11:35:58.943Z,145495.19
2022-12-28T11:38:43.081Z,145461.22
2022-12-28T11:41:11.485Z,145489.13
2022-12-28T11:43:42.356Z,145517.06
2022-12-28T11:46:21.136Z,145526.78
2022-12-28T11:48:57.734Z,145529.22
2022-12-28T11:51:29.172Z,145546.19
2022-12-28T11:54:00.055Z,145551.06
2022-12-28T11:56:47.237Z,145508.56
2022-12-28T11:59:20.589Z,145467.25
2022-12-28T12:01:48.236Z,145509.75
2022-12-28T12:04:32.124Z,145508.56
2022-12-28T12:07:01.480Z,145525.56
2022-12-28T12:09:43.025Z,145526.78
2022-12-28T12:12:17.966Z,145472.13
2022-12-28T12:14:48.206Z,145470.91
2022-12-28T12:17:27.005Z,145472.13
2022-12-28T12:20:05.516Z,145419.94
2022-12-28T12:22:40.793Z,145424.78
2022-12-28T12:25:11.879Z,145398.06
2022-12-28T12:27:40.187Z,145334.94
2022-12-28T12:30:17.473Z,145376.19
2022-12-28T12:32:46.287Z,145373.75
2022-12-28T12:35:29.348Z,145383.50
2022-12-28T12:38:08.458Z,145359.19
2022-12-28T12:40:50.688Z,145356.78
2022-12-28T12:43:25.503Z,145353.13
2022-12-28T12:46:01.364Z,145390.75
2022-12-28T12:48:34.098Z,145373.75
2022-12-28T12:51:05.076Z,145398.06
2022-12-28T12:53:48.487Z,145377.41
2022-12-28T12:56:34.820Z,145412.63
2022-12-28T12:59:15.526Z,145359.19
2022-12-28T13:01:45.371Z,145371.34
2022-12-28T13:04:20.145Z,145348.28
2022-12-28T13:06:47.371Z,145370.16
2022-12-28T13:09:18.115Z,145387.09
2022-12-28T13:11:45.764Z,145373.75
2022-12-28T13:14:18.975Z,145390.75
2022-12-28T13:16:51.900Z,145429.63
2022-12-28T13:19:23.254Z,145408.97
2022-12-28T13:21:50.785Z,145427.19
2022-12-28T13:24:28.615Z,145425.97
2022-12-28T13:26:56.832Z,145444.19
2022-12-28T13:29:27.065Z,145388.34
2022-12-28T13:31:53.993Z,145459.97
2022-12-28T13:34:33.606Z,145483.03
2022-12-28T13:37:12.896Z,145423.53
2022-12-28T13:39:42.023Z,145453.91
2022-12-28T13:42:14.792Z,145385.91
2022-12-28T13:44:47.969Z,145390.75
2022-12-28T13:47:50.390Z,145412.63
2022-12-28T13:50:27.958Z,145405.31
2022-12-28T13:52:58.164Z,145402.91
2022-12-28T13:55:29.015Z,145393.22
2022-12-28T13:57:59.996Z,145375.00
2022-12-28T14:00:28.294Z,145378.59
2022-12-28T14:02:56.011Z,145344.63
2022-12-28T14:05:24.921Z,145395.63
2022-12-28T14:07:53.422Z,145395.63
2022-12-28T14:10:20.581Z,145362.84
2022-12-28T14:12:47.994Z,145356.78
2022-12-28T14:15:15.961Z,145320.38
2022-12-28T14:17:43.374Z,145316.72
2022-12-28T14:20:10.368Z,145288.81
2022-12-28T14:22:38.459Z,145293.66
2022-12-28T14:25:05.431Z,145300.91
2022-12-28T14:27:36.404Z,145287.56
2022-12-28T14:30:04.724Z,145315.50
2022-12-28T14:32:31.553Z,145317.91
2022-12-28T14:34:59.706Z,145298.50
2022-12-28T14:37:29.848Z,145296.06
2022-12-28T14:40:01.021Z,145293.66
2022-12-28T14:42:27.954Z,145290.00
2022-12-28T14:44:56.786Z,145296.06
2022-12-28T14:47:32.840Z,145300.91
2022-12-28T14:50:01.590Z,145321.56
2022-12-28T14:52:33.674Z,145325.22
2022-12-28T14:55:05.122Z,145331.28
2022-12-28T14:57:31.976Z,145325.22
2022-12-28T15:00:01.735Z,145331.28
2022-12-28T15:02:34.729Z,145316.72
2022-12-28T15:05:02.203Z,145325.22
2022-12-28T15:07:31.039Z,145310.66
2022-12-28T15:09:57.876Z,145296.06
2022-12-28T15:12:24.836Z,145309.41
2022-12-28T15:14:51.699Z,145307.00
2022-12-28T15:17:18.621Z,145305.78
2022-12-28T15:19:45.459Z,145277.84
2022-12-28T15:22:12.618Z,145279.09
2022-12-28T15:24:41.437Z,145283.97
2022-12-28T15:27:08.357Z,145296.06
2022-12-28T15:32:22.033Z,145270.59
2022-12-28T15:34:48.903Z,145276.66
2022-12-28T15:37:15.811Z,145254.78
2022-12-28T15:39:42.653Z,145254.78
2022-12-28T15:42:09.559Z,145258.44
2022-12-28T15:44:36.374Z,145275.44
2022-12-28T15:47:03.318Z,145286.34
2022-12-28T15:49:30.170Z,145308.22
2022-12-28T15:51:57.073Z,145283.97
2022-12-28T15:54:23.875Z,145276.66
2022-12-28T15:56:54.172Z,145293.66
2022-12-28T15:59:21.302Z,145293.66
2022-12-28T16:01:48.703Z,145181.94
2022-12-28T16:04:15.742Z,145307.00
2022-12-28T16:06:44.961Z,145315.50
2022-12-28T16:09:12.860Z,145331.28
2022-12-28T16:11:40.457Z,145317.91
2022-12-28T16:14:08.812Z,145313.06
2022-12-28T16:16:37.187Z,145298.50
2022-12-28T16:19:04.654Z,145303.38
2022-12-28T16:21:31.478Z,145297.31
2022-12-28T16:23:59.109Z,145298.50
2022-12-28T16:26:25.994Z,145310.66
2022-12-28T16:28:52.877Z,145320.38
2022-12-28T16:31:23.621Z,145336.13
2022-12-28T16:33:59.120Z,145330.06
2022-12-28T16:36:26.626Z,145343.44
2022-12-28T16:38:53.882Z,145342.19
2022-12-28T16:41:21.537Z,145348.28
2022-12-28T16:43:48.879Z,145340.97
2022-12-28T16:46:16.155Z,145330.06
2022-12-28T16:48:43.426Z,145331.28
2022-12-28T16:51:11.604Z,145344.63
2022-12-28T16:53:38.544Z,145327.63
2022-12-28T16:56:06.173Z,145330.06
2022-12-28T16:58:33.686Z,145357.97
2022-12-28T17:01:04.760Z,145344.63
2022-12-28T17:03:31.694Z,145328.88
2022-12-28T17:05:58.881Z,145349.47
2022-12-28T17:08:26.146Z,145344.63
2022-12-28T17:10:53.144Z,145353.13
2022-12-28T17:13:19.935Z,145177.09
2022-12-28T17:15:46.924Z,145354.34
2022-12-28T17:18:13.815Z,145129.81
2022-12-28T17:20:40.856Z,145373.75
2022-12-28T17:23:08.017Z,145340.97
2022-12-28T17:25:35.401Z,145381.06
2022-12-28T17:28:02.514Z,145364.03
2022-12-28T17:30:29.820Z,145377.41
2022-12-28T17:32:56.918Z,145373.75
2022-12-28T17:35:23.845Z,145376.19
2022-12-28T17:37:52.543Z,145351.94
2022-12-28T17:40:19.841Z,145371.34
2022-12-28T17:42:46.747Z,145388.34
2022-12-28T17:45:13.661Z,145395.63
2022-12-28T17:47:40.546Z,145393.22
2022-12-28T17:50:07.981Z,145391.97
2022-12-28T17:52:34.869Z,145388.34
2022-12-28T17:55:02.963Z,145400.47
2022-12-28T17:57:32.857Z,145396.81
2022-12-28T18:00:04.117Z,145385.91
2022-12-28T18:02:39.556Z,145385.91
2022-12-28T18:05:06.930Z,145398.06
2022-12-28T18:07:34.032Z,145393.22
2022-12-28T18:10:00.977Z,145402.91
2022-12-28T18:12:27.830Z,145385.91
2022-12-28T18:14:54.730Z,145390.75
2022-12-28T18:17:23.234Z,145378.59
2022-12-28T18:19:53.303Z,145415.03
2022-12-28T18:22:22.867Z,145404.13
2022-12-28T18:24:50.469Z,145405.31
2022-12-28T18:27:17.473Z,145418.69
2022-12-28T18:29:44.663Z,145419.94
2022-12-28T18:32:11.481Z,145427.19
2022-12-28T18:34:38.368Z,145444.19
2022-12-28T18:37:05.280Z,145453.91
2022-12-28T18:39:32.137Z,145449.03
2022-12-28T18:41:58.973Z,145444.19
2022-12-28T18:44:25.870Z,145444.19
2022-12-28T18:46:52.937Z,145439.34
2022-12-28T18:49:19.877Z,145412.63
2022-12-28T18:51:46.698Z,145427.19
2022-12-28T18:54:13.568Z,145417.47
2022-12-28T18:56:40.408Z,145410.16
2022-12-28T18:59:07.228Z,145402.91
2022-12-28T19:02:07.902Z,145371.34
2022-12-28T19:04:23.803Z,145393.22
2022-12-28T19:06:50.730Z,145393.22
2022-12-28T19:09:17.595Z,145375.00
2022-12-28T19:11:45.101Z,145389.56
2022-12-28T19:14:12.758Z,145388.34
2022-12-28T19:16:39.935Z,145373.75
2022-12-28T19:19:06.873Z,145349.47
2022-12-28T19:21:35.080Z,145353.13
2022-12-28T19:24:06.849Z,145371.34
2022-12-28T19:26:34.573Z,145372.53
2022-12-28T19:29:02.766Z,145365.28
2022-12-28T19:31:30.212Z,145376.19
2022-12-28T19:33:57.686Z,145361.63
2022-12-28T19:36:24.959Z,145354.34
2022-12-28T19:38:57.672Z,145351.94
2022-12-28T19:41:24.714Z,145356.78
2022-12-28T19:43:51.680Z,145366.50
2022-12-28T19:46:22.965Z,145359.19
2022-12-28T19:48:52.568Z,145362.84
2022-12-28T19:51:19.402Z,145361.63
2022-12-28T19:53:46.239Z,145365.28
2022-12-28T19:56:14.314Z,145347.09
2022-12-28T19:58:43.455Z,145362.84
2022-12-28T20:01:11.815Z,145339.78
2022-12-28T20:03:39.055Z,145354.34
2022-12-28T20:06:13.590Z,145353.13
2022-12-28T20:08:40.801Z,145311.88
2022-12-28T20:11:07.630Z,145322.78
2022-12-28T20:13:34.801Z,145322.78
2022-12-28T20:16:01.829Z,145298.50
2022-12-28T20:18:28.969Z,145325.22
2022-12-28T20:23:48.123Z,145291.22
2022-12-28T20:26:15.309Z,145291.22
2022-12-28T20:28:42.157Z,145303.38
2022-12-28T20:31:11.155Z,145305.78
2022-12-28T20:33:38.123Z,145274.25
2022-12-28T20:36:10.434Z,145288.81
2022-12-28T20:38:37.424Z,145282.72
2022-12-28T20:41:32.014Z,145305.78
2022-12-28T20:43:59.560Z,145290.00
2022-12-28T20:46:26.999Z,145309.41
2022-12-28T20:48:54.231Z,145313.06
2022-12-28T20:51:21.123Z,145296.06
2022-12-28T20:53:48.063Z,145298.50
2022-12-28T20:56:14.869Z,145287.56
2022-12-28T20:58:41.908Z,145293.66
2022-12-28T21:01:10.376Z,145293.66
2022-12-28T21:03:37.806Z,145300.91
2022-12-28T21:06:05.001Z,145298.50
2022-12-28T21:08:32.246Z,145298.50
2022-12-28T21:10:59.380Z,145288.81
2022-12-28T21:13:26.588Z,145287.56
2022-12-28T21:15:53.568Z,145310.66
2022-12-28T21:18:20.510Z,145293.66
2022-12-28T21:20:48.150Z,145300.91
2022-12-28T21:23:15.300Z,145310.66
2022-12-28T21:25:42.130Z,145325.22
2022-12-28T21:28:10.047Z,145315.50
2022-12-28T21:30:37.091Z,145347.09
2022-12-28T21:33:04.081Z,145345.84
2022-12-28T21:35:34.443Z,145340.97
2022-12-28T21:38:01.958Z,145342.19
2022-12-28T21:40:28.925Z,145371.34
2022-12-28T21:42:55.783Z,145377.41
2022-12-28T21:45:22.748Z,145378.59
2022-12-28T21:47:49.584Z,145383.50
2022-12-28T21:50:16.422Z,145381.06
2022-12-28T21:52:43.235Z,145401.72
2022-12-28T21:55:28.592Z,145398.06
2022-12-28T21:57:55.467Z,145405.31
2022-12-28T22:00:40.940Z,145422.31
2022-12-28T22:03:26.415Z,145439.34
2022-12-28T22:06:03.799Z,145446.59
2022-12-28T22:08:49.747Z,145451.44
2022-12-28T22:11:35.902Z,145472.13
2022-12-28T22:14:03.430Z,145470.91
2022-12-28T22:16:34.112Z,145474.56
2022-12-28T22:19:03.117Z,145473.31
2022-12-28T22:21:31.048Z,145492.78
2022-12-28T22:23:57.985Z,145495.19
2022-12-28T22:26:24.926Z,145514.59
2022-12-28T22:28:51.828Z,145519.47
2022-12-28T22:31:18.697Z,145535.28
2022-12-28T22:33:46.051Z,145541.34
2022-12-28T22:36:14.475Z,145555.91
2022-12-28T22:38:41.342Z,145536.47
2022-12-28T22:41:08.278Z,145570.50
2022-12-28T22:43:35.384Z,145575.38
2022-12-28T22:46:06.940Z,145588.75
2022-12-28T22:48:34.187Z,145580.22
2022-12-28T22:51:02.166Z,145603.31
2022-12-28T22:53:29.126Z,145604.50
2022-12-28T22:55:59.594Z,145599.66
2022-12-28T22:58:27.103Z,145616.69
2022-12-28T23:01:07.883Z,145616.69
2022-12-28T23:03:37.025Z,145616.69
2022-12-28T23:06:04.653Z,145614.22
2022-12-28T23:08:31.607Z,145628.78
2022-12-28T23:10:59.670Z,145636.09
2022-12-28T23:13:26.854Z,145647.03
2022-12-28T23:15:56.697Z,145659.19
2022-12-28T23:18:42.528Z,145645.81
2022-12-28T23:21:38.120Z,145633.66
2022-12-28T23:24:24.696Z,145638.56
2022-12-28T23:27:10.331Z,145660.38
2022-12-28T23:29:37.165Z,145630.03
2022-12-28T23:32:04.344Z,145648.28
2022-12-28T23:34:31.270Z,145660.38
2022-12-28T23:36:58.096Z,145665.25
2022-12-28T23:39:25.058Z,145665.25
2022-12-28T23:41:52.194Z,145676.19
2022-12-28T23:44:23.744Z,145662.84
2022-12-28T23:46:55.250Z,145689.56
2022-12-28T23:49:25.392Z,145694.44
2022-12-28T23:51:52.229Z,145706.59
2022-12-28T23:54:19.917Z,145704.19
2022-12-28T23:56:47.330Z,145687.13
2022-12-28T23:59:14.497Z,145683.47
